createdAt,value
2022-08-14T00:01:33.039Z,98514.80
2022-08-14T00:04:35.970Z,98513.00
2022-08-14T00:07:07.141Z,98504.80
2022-08-14T00:10:02.518Z,98506.40
2022-08-14T00:12:57.211Z,98499.00
2022-08-14T00:15:44.139Z,98494.80
2022-08-14T00:19:05.535Z,98493.80
2022-08-14T00:21:22.427Z,98487.00
2022-08-14T00:24:07.941Z,98488.80
2022-08-14T00:26:48.772Z,98484.20
2022-08-14T00:29:30.712Z,98480.20
2022-08-14T00:32:52.421Z,98480.00
2022-08-14T00:35:10.100Z,98478.60
2022-08-14T00:37:50.639Z,98475.20
2022-08-14T00:40:35.511Z,98477.00
2022-08-14T00:43:12.810Z,98479.20
2022-08-14T00:45:52.282Z,98478.00
2022-08-14T00:48:34.881Z,98471.40
2022-08-14T00:51:14.630Z,98465.60
2022-08-14T00:53:51.490Z,98469.40
2022-08-14T00:56:31.323Z,98473.80
2022-08-14T00:59:09.528Z,98472.60
2022-08-14T01:01:49.283Z,98472.20
2022-08-14T01:04:50.844Z,98471.60
2022-08-14T01:07:24.846Z,98469.60
2022-08-14T01:10:07.810Z,98472.00
2022-08-14T01:12:44.428Z,98463.60
2022-08-14T01:15:31.776Z,98467.20
2022-08-14T01:18:38.745Z,98465.60
2022-08-14T01:21:17.122Z,98465.40
2022-08-14T01:23:55.621Z,98463.40
2022-08-14T01:26:35.162Z,98460.40
2022-08-14T01:29:16.249Z,98461.60
2022-08-14T01:32:13.025Z,98456.80
2022-08-14T01:35:20.041Z,98452.80
2022-08-14T01:37:56.428Z,98454.20
2022-08-14T01:40:41.107Z,98449.20
2022-08-14T01:43:22.176Z,98453.60
2022-08-14T01:46:06.503Z,98450.80
2022-08-14T01:48:44.396Z,98449.40
2022-08-14T01:51:25.011Z,98449.40
2022-08-14T01:54:05.792Z,98446.80
2022-08-14T01:56:44.581Z,98446.20
2022-08-14T01:59:37.600Z,98446.80
2022-08-14T02:02:19.966Z,98448.60
2022-08-14T02:04:57.809Z,98447.60
2022-08-14T02:07:53.238Z,98445.00
2022-08-14T02:10:29.976Z,98442.60
2022-08-14T02:13:08.537Z,98439.20
2022-08-14T02:15:44.481Z,98433.80
2022-08-14T02:18:20.786Z,98431.60
2022-08-14T02:20:59.250Z,98433.20
2022-08-14T02:23:36.639Z,98432.60
2022-08-14T02:26:29.946Z,98434.60
2022-08-14T02:29:11.822Z,98428.80
2022-08-14T02:31:51.459Z,98431.20
2022-08-14T02:34:32.201Z,98434.40
2022-08-14T02:37:15.992Z,98435.20
2022-08-14T02:39:52.244Z,98429.60
2022-08-14T02:42:37.231Z,98432.20
2022-08-14T02:45:15.608Z,98431.40
2022-08-14T02:47:57.402Z,98427.40
2022-08-14T02:50:34.243Z,98432.00
2022-08-14T02:53:12.122Z,98428.20
2022-08-14T02:55:51.539Z,98426.60
2022-08-14T02:58:31.145Z,98428.00
2022-08-14T03:01:08.846Z,98423.80
2022-08-14T03:03:46.206Z,98427.20
2022-08-14T03:06:48.888Z,98424.20
2022-08-14T03:09:21.565Z,98426.00
2022-08-14T03:11:58.082Z,98419.80
2022-08-14T03:14:37.922Z,98419.60
2022-08-14T03:17:16.055Z,98420.00
2022-08-14T03:19:53.648Z,98418.40
2022-08-14T03:22:29.978Z,98418.40
2022-08-14T03:25:07.422Z,98423.00
2022-08-14T03:27:48.188Z,98421.60
2022-08-14T03:30:38.797Z,98418.80
2022-08-14T03:33:17.483Z,98419.60
2022-08-14T03:36:05.567Z,98416.00
2022-08-14T03:39:12.651Z,98415.60
2022-08-14T03:41:55.716Z,98414.40
2022-08-14T03:45:25.438Z,98416.20
2022-08-14T03:47:46.131Z,98414.00
2022-08-14T03:50:30.701Z,98413.00
2022-08-14T03:53:08.128Z,98416.60
2022-08-14T03:55:45.419Z,98419.20
2022-08-14T03:58:23.636Z,98417.60
2022-08-14T04:01:11.660Z,98420.40
2022-08-14T04:03:48.173Z,98418.60
2022-08-14T04:06:31.590Z,98415.40
2022-08-14T04:09:09.262Z,98414.40
2022-08-14T04:11:45.639Z,98411.00
2022-08-14T04:14:21.811Z,98412.80
2022-08-14T04:16:59.728Z,98410.00
2022-08-14T04:19:38.303Z,98413.60
2022-08-14T04:22:15.069Z,98415.60
2022-08-14T04:24:53.267Z,98415.80
2022-08-14T04:27:30.599Z,98419.40
2022-08-14T04:30:32.851Z,98418.40
2022-08-14T04:33:17.143Z,98419.80
2022-08-14T04:35:57.174Z,98421.40
2022-08-14T04:38:51.148Z,98418.20
2022-08-14T04:41:47.450Z,98414.60
2022-08-14T04:44:35.974Z,98418.80
2022-08-14T04:47:30.938Z,98414.80
2022-08-14T04:50:10.535Z,98414.00
2022-08-14T04:52:53.989Z,98411.40
2022-08-14T04:55:33.774Z,98408.60
2022-08-14T04:58:21.939Z,98407.00
2022-08-14T05:01:12.986Z,98408.20
2022-08-14T05:03:57.464Z,98405.80
2022-08-14T05:06:37.530Z,98412.60
2022-08-14T05:09:15.242Z,98408.60
2022-08-14T05:11:53.879Z,98398.40
2022-08-14T05:14:45.498Z,98401.60
2022-08-14T05:17:32.176Z,98398.80
2022-08-14T05:21:05.047Z,98399.80
2022-08-14T05:23:19.889Z,98402.20
2022-08-14T05:26:03.824Z,98404.00
2022-08-14T05:28:43.237Z,98405.80
2022-08-14T05:31:21.135Z,98403.80
2022-08-14T05:33:57.419Z,98403.20
2022-08-14T05:36:34.053Z,98403.40
2022-08-14T05:39:12.409Z,98400.60
2022-08-14T05:41:53.963Z,98398.20
2022-08-14T05:44:30.914Z,98396.00
2022-08-14T05:47:07.933Z,98401.40
2022-08-14T05:49:46.167Z,98397.00
2022-08-14T05:52:38.343Z,98394.60
2022-08-14T05:55:18.219Z,98395.40
2022-08-14T05:58:03.173Z,98397.00
2022-08-14T06:00:44.448Z,98400.20
2022-08-14T06:03:23.748Z,98400.60
2022-08-14T06:06:01.178Z,98399.60
2022-08-14T06:08:41.609Z,98404.20
2022-08-14T06:11:20.206Z,98408.80
2022-08-14T06:14:00.154Z,98407.80
2022-08-14T06:16:36.149Z,98406.80
2022-08-14T06:19:18.252Z,98407.60
2022-08-14T06:21:59.393Z,98410.20
2022-08-14T06:24:35.756Z,98413.40
2022-08-14T06:27:12.307Z,98413.20
2022-08-14T06:29:52.169Z,98411.00
2022-08-14T06:32:38.692Z,98414.00
2022-08-14T06:35:20.575Z,98412.00
2022-08-14T06:37:58.520Z,98409.40
2022-08-14T06:40:40.339Z,98411.80
2022-08-14T06:43:21.102Z,98411.80
2022-08-14T06:46:03.183Z,98404.60
2022-08-14T06:48:39.263Z,98401.60
2022-08-14T06:51:18.543Z,98402.80
2022-08-14T06:53:57.260Z,98400.40
2022-08-14T06:56:33.169Z,98399.80
2022-08-14T06:59:09.298Z,98397.20
2022-08-14T07:02:17.713Z,98399.00
2022-08-14T07:05:12.613Z,98404.00
2022-08-14T07:07:58.293Z,98404.40
2022-08-14T07:10:35.013Z,98410.80
2022-08-14T07:13:11.603Z,98410.60
2022-08-14T07:15:55.084Z,98415.40
2022-08-14T07:18:34.316Z,98410.40
2022-08-14T07:21:11.642Z,98410.40
2022-08-14T07:23:47.893Z,98412.20
2022-08-14T07:26:27.762Z,98408.80
2022-08-14T07:29:05.745Z,98408.00
2022-08-14T07:31:43.122Z,98410.20
2022-08-14T07:34:36.241Z,98414.00
2022-08-14T07:37:15.556Z,98412.80
2022-08-14T07:39:51.663Z,98419.00
2022-08-14T07:42:28.577Z,98420.60
2022-08-14T07:45:05.434Z,98422.20
2022-08-14T07:47:47.287Z,98422.60
2022-08-14T07:50:24.547Z,98424.60
2022-08-14T07:53:11.299Z,98426.20
2022-08-14T07:56:08.784Z,98429.40
2022-08-14T07:58:51.618Z,98430.40
2022-08-14T08:01:31.820Z,98429.60
2022-08-14T08:04:16.697Z,98426.80
2022-08-14T08:07:03.503Z,98423.60
2022-08-14T08:09:48.308Z,98423.00
2022-08-14T08:12:32.711Z,98419.00
2022-08-14T08:15:11.178Z,98422.00
2022-08-14T08:17:53.798Z,98417.60
2022-08-14T08:20:52.233Z,98418.00
2022-08-14T08:23:40.040Z,98419.80
2022-08-14T08:26:17.553Z,98423.20
2022-08-14T08:29:03.109Z,98419.80
2022-08-14T08:31:52.146Z,98419.20
2022-08-14T08:34:30.516Z,98419.80
2022-08-14T08:37:07.534Z,98417.60
2022-08-14T08:40:02.630Z,98418.80
2022-08-14T08:42:44.662Z,98417.20
2022-08-14T08:45:23.875Z,98418.40
2022-08-14T08:48:20.638Z,98420.80
2022-08-14T08:50:58.414Z,98419.20
2022-08-14T08:53:38.611Z,98419.00
2022-08-14T08:56:30.733Z,98415.80
2022-08-14T08:59:31.103Z,98414.80
2022-08-14T09:02:10.847Z,98413.80
2022-08-14T09:04:53.568Z,98413.20
2022-08-14T09:07:33.100Z,98411.20
2022-08-14T09:10:11.469Z,98414.40
2022-08-14T09:12:56.251Z,98410.60
2022-08-14T09:15:42.465Z,98404.60
2022-08-14T09:18:23.125Z,98404.40
2022-08-14T09:21:00.328Z,98407.80
2022-08-14T09:24:26.508Z,98408.60
2022-08-14T09:26:34.234Z,98409.80
2022-08-14T09:29:12.918Z,98409.00
2022-08-14T09:31:57.731Z,98409.60
2022-08-14T09:34:59.096Z,98408.20
2022-08-14T09:37:58.031Z,98407.00
2022-08-14T09:40:51.958Z,98407.40
2022-08-14T09:43:41.407Z,98401.00
2022-08-14T09:46:21.244Z,98404.60
2022-08-14T09:49:16.235Z,98403.40
2022-08-14T09:51:58.714Z,98405.60
2022-08-14T09:54:45.141Z,98405.80
2022-08-14T09:57:33.628Z,98416.20
2022-08-14T10:00:30.619Z,98412.80
2022-08-14T10:03:06.867Z,98409.60
2022-08-14T10:05:43.752Z,98410.80
2022-08-14T10:08:26.863Z,98409.40
2022-08-14T10:11:14.839Z,98404.20
2022-08-14T10:13:56.057Z,98404.00
2022-08-14T10:16:45.594Z,98405.20
2022-08-14T10:19:25.210Z,98403.00
2022-08-14T10:23:15.381Z,98395.20
2022-08-14T10:25:17.680Z,98393.80
2022-08-14T10:28:04.830Z,98389.00
2022-08-14T10:30:40.890Z,98391.00
2022-08-14T10:33:32.616Z,98388.00
2022-08-14T10:36:10.056Z,98388.20
2022-08-14T10:39:08.243Z,98395.00
2022-08-14T10:41:54.019Z,98394.20
2022-08-14T10:44:38.796Z,98400.00
2022-08-14T10:47:39.363Z,98402.00
2022-08-14T10:50:18.595Z,98402.40
2022-08-14T10:53:05.600Z,98401.20
2022-08-14T10:55:46.073Z,98407.20
2022-08-14T10:58:34.397Z,98408.40
2022-08-14T11:01:12.385Z,98411.60
2022-08-14T11:03:55.823Z,98411.60
2022-08-14T11:06:34.674Z,98409.20
2022-08-14T11:09:18.596Z,98408.40
2022-08-14T11:12:33.969Z,98404.20
2022-08-14T11:15:02.815Z,98402.20
2022-08-14T11:17:39.303Z,98403.60
2022-08-14T11:20:25.233Z,98401.40
2022-08-14T11:23:08.673Z,98401.80
2022-08-14T11:25:52.922Z,98402.20
2022-08-14T11:28:47.432Z,98402.80
2022-08-14T11:31:27.616Z,98404.80
2022-08-14T11:34:31.930Z,98406.60
2022-08-14T11:37:20.751Z,98413.40
2022-08-14T11:40:03.310Z,98414.60
2022-08-14T11:42:56.270Z,98413.40
2022-08-14T11:45:37.110Z,98414.00
2022-08-14T11:49:03.520Z,98414.80
2022-08-14T11:51:30.404Z,98410.00
2022-08-14T11:54:10.264Z,98414.80
2022-08-14T11:56:50.835Z,98418.80
2022-08-14T11:59:32.966Z,98415.00
2022-08-14T12:03:01.162Z,98419.00
2022-08-14T12:05:16.444Z,98423.00
2022-08-14T12:07:57.238Z,98421.20
2022-08-14T12:10:41.114Z,98415.60
2022-08-14T12:13:22.510Z,98414.80
2022-08-14T12:16:11.149Z,98413.40
2022-08-14T12:19:02.333Z,98410.40
2022-08-14T12:21:39.166Z,98405.60
2022-08-14T12:24:36.901Z,98402.00
2022-08-14T12:27:17.030Z,98402.00
2022-08-14T12:30:00.575Z,98400.60
2022-08-14T12:32:47.937Z,98397.00
2022-08-14T12:35:25.163Z,98394.40
2022-08-14T12:38:01.128Z,98397.00
2022-08-14T12:40:46.604Z,98396.00
2022-08-14T12:43:24.109Z,98388.00
2022-08-14T12:46:00.632Z,98388.60
2022-08-14T12:48:50.377Z,98387.20
2022-08-14T12:51:31.608Z,98383.00
2022-08-14T12:54:27.778Z,98383.40
2022-08-14T12:57:19.693Z,98376.20
2022-08-14T12:59:55.028Z,98367.60
2022-08-14T13:02:37.942Z,98365.80
2022-08-14T13:05:16.765Z,98364.80
2022-08-14T13:07:54.198Z,98361.20
2022-08-14T13:10:51.141Z,98351.20
2022-08-14T13:13:34.527Z,98347.20
2022-08-14T13:16:20.113Z,98344.60
2022-08-14T13:19:01.991Z,98341.20
2022-08-14T13:21:58.710Z,98342.40
2022-08-14T13:24:34.744Z,98341.20
2022-08-14T13:27:13.975Z,98338.00
2022-08-14T13:29:52.458Z,98332.00
2022-08-14T13:32:30.417Z,98329.80
2022-08-14T13:35:12.089Z,98315.40
2022-08-14T13:37:54.124Z,98318.60
2022-08-14T13:40:30.491Z,98310.40
2022-08-14T13:43:08.937Z,98304.00
2022-08-14T13:46:00.573Z,98302.80
2022-08-14T13:48:38.248Z,98300.40
2022-08-14T13:51:17.713Z,98301.80
2022-08-14T13:54:10.207Z,98297.40
2022-08-14T13:56:49.089Z,98292.80
2022-08-14T13:59:37.833Z,98289.20
2022-08-14T14:02:33.767Z,98285.60
2022-08-14T14:05:15.046Z,98290.40
2022-08-14T14:07:56.111Z,98281.40
2022-08-14T14:10:36.810Z,98279.00
2022-08-14T14:13:20.258Z,98285.40
2022-08-14T14:15:58.484Z,98284.20
2022-08-14T14:18:42.495Z,98279.40
2022-08-14T14:21:23.941Z,98281.00
2022-08-14T14:23:58.950Z,98288.80
2022-08-14T14:26:36.300Z,98292.80
2022-08-14T14:29:14.966Z,98288.40
2022-08-14T14:31:55.035Z,98287.80
2022-08-14T14:34:37.849Z,98293.40
2022-08-14T14:37:16.568Z,98290.20
2022-08-14T14:40:52.865Z,98292.20
2022-08-14T14:42:55.669Z,98289.40
2022-08-14T14:45:33.020Z,98288.00
2022-08-14T14:48:12.708Z,98286.40
2022-08-14T14:50:54.182Z,98287.40
2022-08-14T14:53:38.701Z,98285.60
2022-08-14T14:56:50.686Z,98285.40
2022-08-14T14:59:15.329Z,98281.60
2022-08-14T15:02:00.784Z,98281.60
2022-08-14T15:04:38.465Z,98281.80
2022-08-14T15:07:16.945Z,98279.80
2022-08-14T15:09:52.973Z,98279.40
2022-08-14T15:12:55.359Z,98277.60
2022-08-14T15:15:25.452Z,98267.40
2022-08-14T15:18:01.818Z,98269.00
2022-08-14T15:20:41.047Z,98272.00
2022-08-14T15:23:18.650Z,98271.40
2022-08-14T15:25:59.348Z,98271.20
2022-08-14T15:28:38.669Z,98274.40
2022-08-14T15:31:15.174Z,98275.80
2022-08-14T15:34:44.468Z,98279.00
2022-08-14T15:37:06.521Z,98283.20
2022-08-14T15:39:49.279Z,98289.80
2022-08-14T15:42:27.153Z,98292.00
2022-08-14T15:45:03.688Z,98291.80
2022-08-14T15:47:41.543Z,98290.40
2022-08-14T15:50:19.523Z,98293.40
2022-08-14T15:52:55.975Z,98285.40
2022-08-14T15:55:32.279Z,98288.40
2022-08-14T15:58:14.428Z,98284.20
2022-08-14T16:01:50.600Z,98284.40
2022-08-14T16:04:24.066Z,98284.20
2022-08-14T16:07:00.796Z,98282.00
2022-08-14T16:09:36.940Z,98268.80
2022-08-14T16:12:15.202Z,98269.20
2022-08-14T16:14:56.438Z,98263.60
2022-08-14T16:17:33.359Z,98266.00
2022-08-14T16:20:12.750Z,98267.40
2022-08-14T16:23:12.247Z,98262.00
2022-08-14T16:25:52.601Z,98257.20
2022-08-14T16:28:29.188Z,98255.00
2022-08-14T16:31:05.903Z,98262.00
2022-08-14T16:33:59.772Z,98260.20
2022-08-14T16:36:38.989Z,98263.20
2022-08-14T16:39:28.630Z,98257.40
2022-08-14T16:42:38.265Z,98266.00
2022-08-14T16:45:02.707Z,98265.00
2022-08-14T16:47:39.795Z,98266.20
2022-08-14T16:50:40.141Z,98257.60
2022-08-14T16:53:17.211Z,98250.40
2022-08-14T16:56:23.190Z,98244.80
2022-08-14T16:59:15.929Z,98248.20
2022-08-14T17:02:05.199Z,98252.40
2022-08-14T17:04:42.980Z,98251.60
2022-08-14T17:07:25.795Z,98247.20
2022-08-14T17:10:12.392Z,98248.60
2022-08-14T17:12:48.643Z,98249.60
2022-08-14T17:15:26.169Z,98257.20
2022-08-14T17:18:02.780Z,98257.40
2022-08-14T17:21:01.771Z,98258.00
2022-08-14T17:23:41.024Z,98247.80
2022-08-14T17:26:40.877Z,98241.20
2022-08-14T17:29:23.338Z,98240.60
2022-08-14T17:32:28.589Z,98238.00
2022-08-14T17:35:17.410Z,98237.00
2022-08-14T17:37:55.820Z,98240.40
2022-08-14T17:40:35.531Z,98242.20
2022-08-14T17:43:13.310Z,98241.60
2022-08-14T17:45:51.099Z,98234.40
2022-08-14T17:49:15.749Z,98231.60
2022-08-14T17:51:30.202Z,98232.00
2022-08-14T17:54:08.412Z,98230.00
2022-08-14T17:56:45.950Z,98228.80
2022-08-14T17:59:24.132Z,98232.80
2022-08-14T18:02:01.484Z,98237.80
2022-08-14T18:04:41.332Z,98243.60
2022-08-14T18:08:00.481Z,98245.00
2022-08-14T18:10:52.322Z,98247.20
2022-08-14T18:13:17.256Z,98245.80
2022-08-14T18:15:56.003Z,98246.60
2022-08-14T18:18:32.384Z,98250.60
2022-08-14T18:21:42.736Z,98251.40
2022-08-14T18:24:20.043Z,98260.80
2022-08-14T18:27:09.139Z,98268.80
2022-08-14T18:29:54.522Z,98272.20
2022-08-14T18:32:55.135Z,98276.20
2022-08-14T18:35:59.968Z,98281.60
2022-08-14T18:38:55.120Z,98284.60
2022-08-14T18:41:38.053Z,98284.60
2022-08-14T18:44:14.923Z,98283.40
2022-08-14T18:47:32.639Z,98279.00
2022-08-14T18:50:31.302Z,98274.00
2022-08-14T18:53:12.969Z,98274.20
2022-08-14T18:56:02.016Z,98276.80
2022-08-14T18:58:57.049Z,98270.60
2022-08-14T19:01:35.577Z,98271.20
2022-08-14T19:04:38.545Z,98266.60
2022-08-14T19:07:25.109Z,98270.40
2022-08-14T19:10:06.856Z,98269.60
2022-08-14T19:13:11.981Z,98268.40
2022-08-14T19:16:04.736Z,98266.00
2022-08-14T19:18:53.784Z,98269.40
2022-08-14T19:21:42.518Z,98268.40
2022-08-14T19:24:29.198Z,98272.00
2022-08-14T19:27:26.375Z,98272.20
2022-08-14T19:30:32.092Z,98266.60
2022-08-14T19:33:46.487Z,98265.80
2022-08-14T19:36:29.074Z,98260.20
2022-08-14T19:39:08.013Z,98267.80
2022-08-14T19:41:51.996Z,98267.80
2022-08-14T19:44:36.386Z,98268.80
2022-08-14T19:47:13.592Z,98267.00
2022-08-14T19:50:24.593Z,98265.40
2022-08-14T19:52:49.285Z,98261.00
2022-08-14T19:55:34.178Z,98258.60
2022-08-14T19:58:12.415Z,98257.20
2022-08-14T20:00:59.699Z,98253.80
2022-08-14T20:03:59.856Z,98251.00
2022-08-14T20:06:46.639Z,98252.40
2022-08-14T20:11:05.756Z,98254.80
2022-08-14T20:12:28.889Z,98242.60
2022-08-14T20:15:17.916Z,98238.20
2022-08-14T20:17:57.653Z,98238.00
2022-08-14T20:20:39.027Z,98229.00
2022-08-14T20:23:20.332Z,98227.00
2022-08-14T20:25:58.628Z,98231.40
2022-08-14T20:28:51.427Z,98230.00
2022-08-14T20:31:37.290Z,98224.20
2022-08-14T20:34:25.173Z,98225.40
2022-08-14T20:37:22.074Z,98230.40
2022-08-14T20:39:58.981Z,98227.40
2022-08-14T20:42:56.540Z,98236.40
2022-08-14T20:45:42.018Z,98232.00
2022-08-14T20:48:53.204Z,98233.60
2022-08-14T20:51:36.501Z,98230.00
2022-08-14T20:54:16.126Z,98229.80
2022-08-14T20:56:53.682Z,98231.40
2022-08-14T20:59:32.224Z,98224.80
2022-08-14T21:02:49.762Z,98227.60
2022-08-14T21:05:33.755Z,98228.60
2022-08-14T21:08:22.298Z,98230.00
2022-08-14T21:11:01.091Z,98229.40
2022-08-14T21:14:24.875Z,98223.60
2022-08-14T21:16:41.001Z,98222.80
2022-08-14T21:19:32.032Z,98229.00
2022-08-14T21:22:12.435Z,98225.00
2022-08-14T21:24:49.913Z,98220.60
2022-08-14T21:27:39.978Z,98215.60
2022-08-14T21:30:41.867Z,98218.60
2022-08-14T21:33:29.817Z,98223.80
2022-08-14T21:36:12.482Z,98221.60
2022-08-14T21:38:59.105Z,98210.80
2022-08-14T21:41:43.189Z,98208.20
2022-08-14T21:44:43.086Z,98211.80
2022-08-14T21:47:23.602Z,98210.20
2022-08-14T21:49:59.713Z,98212.40
2022-08-14T21:52:51.489Z,98213.60
2022-08-14T21:55:34.094Z,98212.20
2022-08-14T21:58:53.373Z,98207.40
2022-08-14T22:01:10.705Z,98199.00
2022-08-14T22:03:54.612Z,98201.00
2022-08-14T22:06:31.695Z,98202.40
2022-08-14T22:09:09.829Z,98206.00
2022-08-14T22:11:46.295Z,98204.00
2022-08-14T22:14:32.073Z,98207.20
2022-08-14T22:17:13.172Z,98201.20
2022-08-14T22:19:54.941Z,98208.40
2022-08-14T22:22:32.912Z,98208.80
2022-08-14T22:25:17.302Z,98208.00
2022-08-14T22:27:56.221Z,98210.00
2022-08-14T22:30:32.740Z,98211.60
2022-08-14T22:33:13.267Z,98211.00
2022-08-14T22:35:49.953Z,98214.40
2022-08-14T22:38:36.100Z,98219.60
2022-08-14T22:41:29.526Z,98221.40
2022-08-14T22:44:15.065Z,98220.00
2022-08-14T22:46:52.711Z,98222.20
2022-08-14T22:50:31.744Z,98222.00
2022-08-14T22:52:32.402Z,98223.20
2022-08-14T22:55:14.174Z,98220.80
2022-08-14T22:57:50.411Z,98216.40
2022-08-14T23:00:31.470Z,98218.20
2022-08-14T23:03:17.263Z,98211.00
2022-08-14T23:05:54.685Z,98218.20
2022-08-14T23:08:57.942Z,98214.80
2022-08-14T23:11:27.258Z,98214.40
2022-08-14T23:14:05.736Z,98204.60
2022-08-14T23:16:51.616Z,98199.80
2022-08-14T23:19:34.811Z,98204.40
2022-08-14T23:22:11.905Z,98193.60
2022-08-14T23:24:53.250Z,98193.20
2022-08-14T23:28:02.962Z,98191.00
2022-08-14T23:30:33.915Z,98190.00
2022-08-14T23:33:16.841Z,98187.40
2022-08-14T23:35:58.741Z,98186.00
2022-08-14T23:38:36.047Z,98180.60
2022-08-14T23:41:14.722Z,98179.80
2022-08-14T23:43:57.172Z,98187.80
2022-08-14T23:46:35.044Z,98185.60
2022-08-14T23:49:12.416Z,98181.60
2022-08-14T23:52:51.507Z,98186.40
2022-08-14T23:54:48.392Z,98178.00
2022-08-14T23:57:25.626Z,98187.80
